Time;durP1;ratioP1;P1;durP2;ratioP2;P2;SDS_P1;SDS_P2;PMS_P1;PMS_P2;Temp;Humidity;BMP_temperature;BMP_pressure;BME280_temperature;BME280_humidity;BME280_pressure;Samples;Min_cycle;Max_cycle;Signal;HPM_P1;HPM_P2
2024/04/09 00:01:53;;;;;;;12.40;5.10;;;17.90;41.50;;;;;;5490793;26;20465;-70
2024/04/09 00:04:26;;;;;;;11.80;4.47;;;17.80;41.30;;;;;;5490753;26;20523;-70
2024/04/09 00:06:52;;;;;;;15.90;4.70;;;17.80;41.90;;;;;;5490575;26;21023;-70
2024/04/09 00:09:23;;;;;;;20.60;4.47;;;17.80;42.80;;;;;;5490541;26;20458;-71
2024/04/09 00:11:49;;;;;;;12.73;4.60;;;17.80;42.60;;;;;;5490570;26;20856;-70
2024/04/09 00:14:18;;;;;;;21.73;4.43;;;17.80;42.70;;;;;;5490389;26;20438;-71
2024/04/09 00:16:44;;;;;;;13.40;4.00;;;17.80;42.60;;;;;;5490359;26;20520;-70
2024/04/09 00:19:17;;;;;;;11.63;2.90;;;17.70;41.20;;;;;;5490260;26;20463;-70
2024/04/09 00:21:47;;;;;;;14.27;4.37;;;17.70;41.70;;;;;;5490410;26;20502;-70
2024/04/09 00:24:16;;;;;;;10.90;3.63;;;17.70;41.60;;;;;;5490140;26;20994;-70
2024/04/09 00:26:42;;;;;;;9.70;3.90;;;17.70;42.60;;;;;;5490415;26;20449;-70
2024/04/09 00:29:12;;;;;;;9.60;3.23;;;17.70;43.10;;;;;;5490600;26;20512;-70
2024/04/09 00:31:38;;;;;;;14.23;3.30;;;17.70;43.30;;;;;;5489136;26;20565;-70
2024/04/09 00:34:06;;;;;;;14.93;4.00;;;17.60;43.60;;;;;;5489946;26;20456;-70
2024/04/09 00:36:33;;;;;;;15.10;4.07;;;17.60;43.30;;;;;;5490065;26;20450;-70
2024/04/09 00:39:18;;;;;;;14.13;3.50;;;17.60;43.00;;;;;;5490453;26;20501;-70
2024/04/09 00:41:44;;;;;;;18.60;4.40;;;17.50;43.30;;;;;;5489984;26;20594;-70
2024/04/09 00:44:13;;;;;;;14.70;4.73;;;17.40;43.30;;;;;;5490074;26;20441;-70
2024/04/09 00:46:39;;;;;;;20.27;5.43;;;17.40;43.30;;;;;;5489798;26;20501;-70
2024/04/09 00:49:08;;;;;;;22.63;4.50;;;17.40;43.50;;;;;;5489745;26;20500;-70
2024/04/09 00:51:34;;;;;;;18.87;4.50;;;17.40;43.10;;;;;;5489873;26;20556;-70
2024/04/09 00:54:10;;;;;;;23.50;3.90;;;17.50;41.50;;;;;;5489787;26;20456;-70
2024/04/09 00:56:37;;;;;;;18.73;3.67;;;17.50;40.20;;;;;;5489886;26;20452;-70
2024/04/09 00:59:09;;;;;;;11.97;4.30;;;17.60;39.50;;;;;;5489782;26;20448;-70
2024/04/09 01:01:35;;;;;;;14.93;4.07;;;17.60;40.30;;;;;;5490155;26;20464;-70
2024/04/09 01:04:03;;;;;;;19.73;4.50;;;17.70;40.20;;;;;;5489942;26;20465;-70
2024/04/09 01:06:31;;;;;;;19.70;4.50;;;17.80;41.50;;;;;;5490242;26;20454;-70
2024/04/09 01:08:59;;;;;;;11.10;4.63;;;17.80;41.20;;;;;;5489520;26;20500;-70
2024/04/09 01:11:28;;;;;;;10.87;4.23;;;17.80;42.20;;;;;;5489489;26;20442;-70
2024/04/09 01:13:57;;;;;;;13.10;3.93;;;17.80;40.90;;;;;;5489518;26;20531;-70
2024/04/09 01:16:22;;;;;;;10.10;4.17;;;17.90;39.70;;;;;;5489414;26;20493;-70
2024/04/09 01:18:51;;;;;;;8.63;3.40;;;18.00;38.50;;;;;;5489287;26;20492;-70
2024/04/09 01:21:18;;;;;;;9.23;3.13;;;18.00;37.80;;;;;;5489524;26;20499;-70
2024/04/09 01:23:49;;;;;;;15.80;4.07;;;18.10;40.20;;;;;;5489190;26;21054;-70
2024/04/09 01:26:17;;;;;;;13.80;4.50;;;18.20;42.80;;;;;;5489312;26;20461;-70
2024/04/09 01:28:46;;;;;;;13.37;3.77;;;18.20;41.80;;;;;;5489108;26;20453;-70
2024/04/09 01:31:15;;;;;;;19.40;4.83;;;18.20;42.00;;;;;;5489034;26;20487;-70
2024/04/09 01:33:45;;;;;;;24.20;4.70;;;18.20;42.60;;;;;;5489255;26;20500;-70
2024/04/09 01:36:11;;;;;;;13.03;5.20;;;18.20;44.10;;;;;;5488921;26;20454;-70
2024/04/09 01:38:40;;;;;;;16.37;6.20;;;18.10;44.10;;;;;;5488968;26;20784;-71
2024/04/09 01:41:09;;;;;;;14.67;4.57;;;18.00;43.60;;;;;;5489004;26;20454;-70
2024/04/09 01:43:37;;;;;;;22.80;4.60;;;18.00;43.20;;;;;;5490738;26;20507;-70
2024/04/09 01:46:08;;;;;;;13.40;5.70;;;18.00;43.30;;;;;;5492529;26;20772;-70
2024/04/09 01:48:37;;;;;;;13.00;3.63;;;18.00;42.10;;;;;;5492850;26;20449;-70
2024/04/09 01:51:09;;;;;;;18.00;4.20;;;18.00;42.60;;;;;;5493053;26;20449;-70
2024/04/09 01:53:37;;;;;;;11.20;3.50;;;17.90;42.60;;;;;;5492504;26;20463;-70
2024/04/09 01:56:04;;;;;;;13.70;5.20;;;17.90;43.10;;;;;;5492482;26;21007;-70
2024/04/09 01:58:35;;;;;;;11.03;3.53;;;17.90;42.90;;;;;;5492364;26;20445;-70
2024/04/09 02:01:04;;;;;;;9.07;3.43;;;17.90;43.50;;;;;;5492382;26;20464;-70
2024/04/09 02:03:34;;;;;;;9.93;3.70;;;17.80;43.30;;;;;;5492475;26;20561;-70
2024/04/09 02:06:02;;;;;;;14.57;4.13;;;17.80;43.30;;;;;;5492223;26;20584;-70
2024/04/09 02:08:31;;;;;;;12.00;4.23;;;17.80;43.40;;;;;;5492273;26;20506;-70
2024/04/09 02:10:58;;;;;;;12.03;4.40;;;17.80;43.80;;;;;;5493103;26;20567;-70
2024/04/09 02:13:29;;;;;;;15.83;4.27;;;17.80;39.70;;;;;;5492213;26;20448;-70
2024/04/09 02:15:59;;;;;;;13.63;4.73;;;17.80;38.20;;;;;;5492222;26;20492;-70
2024/04/09 02:18:28;;;;;;;12.00;3.70;;;17.90;37.20;;;;;;5492183;26;20917;-70
2024/04/09 02:20:54;;;;;;;13.70;4.00;;;17.90;38.00;;;;;;5492086;26;20448;-70
2024/04/09 02:23:23;;;;;;;11.83;3.70;;;18.00;36.10;;;;;;5492229;26;20513;-70
2024/04/09 02:25:50;;;;;;;21.33;4.10;;;18.10;33.40;;;;;;5492063;26;20563;-70
2024/04/09 02:28:19;;;;;;;10.53;4.03;;;18.40;32.10;;;;;;5491823;26;20554;-70
2024/04/09 02:30:45;;;;;;;15.50;3.80;;;18.60;31.70;;;;;;5492026;26;20913;-70
2024/04/09 02:33:17;;;;;;;9.70;3.20;;;18.70;31.30;;;;;;5491875;26;20450;-70
2024/04/09 02:35:54;;;;;;;13.10;3.20;;;18.80;31.10;;;;;;5492052;26;20506;-70
2024/04/09 02:38:22;;;;;;;7.07;3.00;;;19.00;30.60;;;;;;5491955;26;21105;-70
2024/04/09 02:40:48;;;;;;;12.90;3.67;;;19.10;30.40;;;;;;5491879;26;20447;-70
2024/04/09 02:43:17;;;;;;;9.40;3.33;;;19.20;29.70;;;;;;5492077;26;20451;-70
2024/04/09 02:45:43;;;;;;;22.10;3.57;;;19.40;29.60;;;;;;5491996;26;20507;-70
2024/04/09 02:48:11;;;;;;;23.43;4.27;;;19.50;29.50;;;;;;5492036;26;20451;-71
2024/04/09 02:50:40;;;;;;;12.43;5.13;;;19.60;29.40;;;;;;5491670;26;20451;-70
2024/04/09 02:53:09;;;;;;;6.87;3.37;;;19.70;29.00;;;;;;5491614;26;20495;-70
2024/04/09 02:55:36;;;;;;;16.33;3.90;;;19.90;28.80;;;;;;5491399;26;20451;-70
2024/04/09 02:58:05;;;;;;;14.13;3.27;;;19.90;28.40;;;;;;5491506;26;20450;-70
2024/04/09 03:00:31;;;;;;;10.10;3.83;;;20.00;28.60;;;;;;5491439;26;20463;-70
2024/04/09 03:03:00;;;;;;;14.70;3.40;;;20.00;28.10;;;;;;5491361;26;20455;-70
2024/04/09 03:05:31;;;;;;;11.27;3.30;;;20.10;28.20;;;;;;5491299;26;20443;-70
2024/04/09 03:08:02;;;;;;;13.93;3.03;;;20.20;28.00;;;;;;5491600;26;21020;-70
2024/04/09 03:10:33;;;;;;;16.07;4.03;;;20.20;27.60;;;;;;5491430;26;20511;-70
2024/04/09 03:13:02;;;;;;;15.97;4.57;;;20.30;27.60;;;;;;5491456;26;21079;-70
2024/04/09 03:15:32;;;;;;;25.13;3.47;;;20.30;27.30;;;;;;5491563;26;20496;-70
2024/04/09 03:17:58;;;;;;;13.17;3.30;;;20.40;27.20;;;;;;5491534;26;20447;-70
2024/04/09 03:20:26;;;;;;;19.17;4.10;;;20.40;27.10;;;;;;5491537;26;20501;-70
2024/04/09 03:22:52;;;;;;;23.03;3.50;;;20.50;27.40;;;;;;5490989;26;20444;-70
2024/04/09 03:25:23;;;;;;;11.03;3.43;;;20.50;27.20;;;;;;5491196;26;20451;-70
2024/04/09 03:27:50;;;;;;;12.63;3.67;;;20.60;26.70;;;;;;5491562;26;20455;-70
2024/04/09 03:30:18;;;;;;;13.70;3.20;;;20.60;27.30;;;;;;5491013;26;20491;-70
2024/04/09 03:32:44;;;;;;;12.63;3.67;;;20.60;27.90;;;;;;5491011;26;21020;-70
2024/04/09 03:35:13;;;;;;;14.60;3.43;;;20.60;28.70;;;;;;5491268;26;20447;-70
2024/04/09 03:37:42;;;;;;;8.77;4.40;;;20.60;28.90;;;;;;5491063;26;20508;-70
2024/04/09 03:40:11;;;;;;;12.00;3.10;;;20.60;29.20;;;;;;5490924;26;20760;-70
2024/04/09 03:42:42;;;;;;;9.60;3.10;;;20.60;29.90;;;;;;5490901;26;20785;-70
2024/04/09 03:45:10;;;;;;;9.70;2.97;;;20.60;30.00;;;;;;5491165;26;20507;-70
2024/04/09 03:47:39;;;;;;;15.03;3.97;;;20.50;30.00;;;;;;5490737;26;20554;-70
2024/04/09 03:50:07;;;;;;;13.10;3.87;;;20.40;30.60;;;;;;5491028;26;20522;-70
2024/04/09 03:52:35;;;;;;;16.30;2.73;;;20.40;30.50;;;;;;5491016;26;20452;-70
2024/04/09 03:55:01;;;;;;;8.90;3.13;;;20.40;30.20;;;;;;5490644;26;21044;-70
2024/04/09 03:57:30;;;;;;;10.40;4.13;;;20.30;30.50;;;;;;5490645;26;20439;-70
2024/04/09 03:59:59;;;;;;;14.10;3.87;;;20.20;30.00;;;;;;5490422;26;20507;-70
2024/04/09 04:02:28;;;;;;;12.00;5.60;;;20.20;27.90;;;;;;5490791;26;20443;-71
2024/04/09 04:04:54;;;;;;;11.93;4.40;;;20.20;28.10;;;;;;5490554;26;20779;-70
2024/04/09 04:07:23;;;;;;;11.90;3.20;;;20.20;27.50;;;;;;5489535;26;20829;-70
2024/04/09 04:09:49;;;;;;;11.43;3.87;;;20.20;27.10;;;;;;5490692;26;20499;-70
2024/04/09 04:12:17;;;;;;;26.70;3.30;;;20.20;26.60;;;;;;5490911;26;20811;-70
2024/04/09 04:14:45;;;;;;;16.60;3.60;;;20.30;26.40;;;;;;5490732;26;20451;-70
2024/04/09 04:17:16;;;;;;;18.43;3.23;;;20.40;26.00;;;;;;5490907;26;20451;-70
2024/04/09 04:19:42;;;;;;;13.37;3.10;;;20.40;25.90;;;;;;5490602;26;20444;-70
2024/04/09 04:22:11;;;;;;;10.43;3.80;;;20.50;25.80;;;;;;5490385;26;20866;-70
2024/04/09 04:24:37;;;;;;;18.43;3.17;;;20.60;25.40;;;;;;5490358;26;20501;-70
2024/04/09 04:27:06;;;;;;;12.20;4.00;;;20.60;26.20;;;;;;5490446;26;20980;-70
2024/04/09 04:29:32;;;;;;;10.90;2.80;;;20.60;26.50;;;;;;5490400;26;20821;-70
2024/04/09 04:32:01;;;;;;;20.50;3.67;;;20.60;26.30;;;;;;5490328;26;20451;-71
2024/04/09 04:34:30;;;;;;;10.40;3.20;;;20.60;27.40;;;;;;5491034;26;20452;-70
2024/04/09 04:36:58;;;;;;;11.97;4.20;;;20.60;28.10;;;;;;5490473;26;21084;-70
2024/04/09 04:39:26;;;;;;;15.63;2.60;;;20.60;30.00;;;;;;5490298;26;20447;-70
2024/04/09 04:41:58;;;;;;;19.53;3.73;;;20.60;30.40;;;;;;5490180;26;20463;-70
2024/04/09 04:44:24;;;;;;;12.20;3.53;;;20.50;27.80;;;;;;5490140;26;20550;-70
2024/04/09 04:46:53;;;;;;;9.73;4.53;;;20.50;29.20;;;;;;5490112;26;20451;-70
2024/04/09 04:49:19;;;;;;;12.90;3.10;;;20.40;30.00;;;;;;5489916;26;20499;-70
2024/04/09 04:51:51;;;;;;;10.57;3.90;;;20.40;30.00;;;;;;5489996;26;20556;-70
2024/04/09 04:54:17;;;;;;;11.80;3.57;;;20.40;27.60;;;;;;5489897;26;20455;-70
2024/04/09 04:56:46;;;;;;;20.90;4.87;;;20.40;25.50;;;;;;5489829;26;20451;-70
2024/04/09 04:59:12;;;;;;;9.77;3.10;;;20.40;25.50;;;;;;5489938;26;20495;-70
2024/04/09 05:01:40;;;;;;;19.33;4.33;;;20.40;26.80;;;;;;5489463;26;20463;-70
2024/04/09 05:04:06;;;;;;;14.03;3.70;;;20.40;29.80;;;;;;5489812;26;20451;-70
2024/04/09 05:06:35;;;;;;;9.60;3.50;;;20.40;31.00;;;;;;5489533;26;20511;-70
2024/04/09 05:09:07;;;;;;;7.77;3.43;;;20.40;31.00;;;;;;5489415;26;20496;-70
2024/04/09 05:11:35;;;;;;;12.07;4.80;;;20.30;30.40;;;;;;5489411;26;20455;-70
2024/04/09 05:14:01;;;;;;;16.77;3.40;;;20.20;29.70;;;;;;5489942;26;20447;-70
2024/04/09 05:16:30;;;;;;;15.83;3.37;;;20.10;31.20;;;;;;5489652;26;20503;-70
2024/04/09 05:18:56;;;;;;;15.60;4.00;;;20.10;31.50;;;;;;5492915;26;20455;-70
2024/04/09 05:21:25;;;;;;;16.73;6.03;;;20.00;32.10;;;;;;5492837;26;20458;-70
2024/04/09 05:23:50;;;;;;;7.40;3.33;;;20.00;32.40;;;;;;5493283;26;20447;-70
2024/04/09 05:26:22;;;;;;;17.10;3.27;;;20.00;32.90;;;;;;5493418;26;20993;-70
2024/04/09 05:28:48;;;;;;;12.53;3.80;;;19.90;32.70;;;;;;5493755;26;20451;-70
2024/04/09 05:31:16;;;;;;;21.60;4.80;;;19.90;33.00;;;;;;5492924;26;20492;-70
2024/04/09 05:33:42;;;;;;;17.20;3.77;;;19.80;34.10;;;;;;5493604;26;20494;-70
2024/04/09 05:36:12;;;;;;;12.40;4.67;;;19.80;34.80;;;;;;5492929;26;20522;-70
2024/04/09 05:38:40;;;;;;;10.70;4.10;;;19.80;35.10;;;;;;5492498;26;20443;-70
2024/04/09 05:41:09;;;;;;;11.93;3.67;;;19.70;34.60;;;;;;5492453;26;20976;-70
2024/04/09 05:43:40;;;;;;;16.50;4.90;;;19.70;35.50;;;;;;5492489;26;20447;-70
2024/04/09 05:46:08;;;;;;;14.70;4.23;;;19.60;34.80;;;;;;5492516;26;20447;-70
2024/04/09 05:48:34;;;;;;;8.10;4.20;;;19.50;35.50;;;;;;5492610;26;20500;-70
2024/04/09 05:51:03;;;;;;;8.20;3.30;;;19.50;37.10;;;;;;5492757;26;20490;-70
2024/04/09 05:53:29;;;;;;;17.03;4.60;;;19.50;37.60;;;;;;5492415;26;20499;-70
2024/04/09 05:55:58;;;;;;;14.70;3.13;;;19.50;38.10;;;;;;5492462;26;20526;-69
2024/04/09 05:58:24;;;;;;;17.80;3.80;;;19.40;37.50;;;;;;5492366;26;20502;-70
2024/04/09 06:00:56;;;;;;;8.50;3.20;;;19.30;37.50;;;;;;5492016;26;20925;-70
2024/04/09 06:03:22;;;;;;;16.53;4.50;;;19.30;36.90;;;;;;5492184;26;20792;-70
2024/04/09 06:05:51;;;;;;;23.13;4.27;;;19.20;36.10;;;;;;5492347;26;20450;-70
2024/04/09 06:08:17;;;;;;;15.67;4.80;;;19.20;36.10;;;;;;5492252;26;20466;-70
2024/04/09 06:10:46;;;;;;;17.37;4.40;;;19.10;35.60;;;;;;5492213;26;20495;-70
2024/04/09 06:13:12;;;;;;;17.33;5.33;;;19.10;35.80;;;;;;5492220;26;20462;-70
2024/04/09 06:15:41;;;;;;;9.70;3.83;;;19.10;34.40;;;;;;5491928;26;20454;-70
2024/04/09 06:18:20;;;;;;;10.97;3.53;;;19.10;34.80;;;;;;5492307;26;20450;-70
2024/04/09 06:20:49;;;;;;;14.83;3.67;;;19.10;34.80;;;;;;5492134;26;20447;-70
2024/04/09 06:23:15;;;;;;;18.30;3.80;;;19.10;34.70;;;;;;5491967;26;20498;-70
2024/04/09 06:25:44;;;;;;;9.17;3.53;;;19.10;35.60;;;;;;5492443;26;20466;-69
2024/04/09 06:28:10;;;;;;;11.97;3.53;;;19.10;35.60;;;;;;5491514;26;20507;-70
2024/04/09 06:30:39;;;;;;;19.23;4.23;;;19.10;36.20;;;;;;5491310;26;20459;-70
2024/04/09 06:33:11;;;;;;;12.13;4.17;;;19.10;36.50;;;;;;5491895;26;20509;-69
2024/04/09 06:35:38;;;;;;;15.47;3.90;;;19.20;35.90;;;;;;5491885;26;20451;-69
2024/04/09 06:38:09;;;;;;;10.47;3.60;;;19.20;34.90;;;;;;5491702;26;20495;-70
2024/04/09 06:40:36;;;;;;;14.70;3.30;;;19.20;34.60;;;;;;5492105;26;20458;-69
2024/04/09 06:43:05;;;;;;;11.97;3.40;;;19.20;34.80;;;;;;5492086;26;20498;-69
2024/04/09 06:45:31;;;;;;;11.53;4.07;;;19.30;38.50;;;;;;5491569;26;20451;-70
2024/04/09 06:47:59;;;;;;;11.30;4.03;;;19.30;36.90;;;;;;5491252;26;20925;-70
2024/04/09 06:50:28;;;;;;;13.70;3.87;;;19.30;34.80;;;;;;5491087;26;20540;-70
2024/04/09 06:52:57;;;;;;;12.67;4.53;;;19.20;35.40;;;;;;5491078;26;21039;-69
2024/04/09 06:55:23;;;;;;;14.43;3.57;;;19.30;35.70;;;;;;5491611;26;20807;-70
2024/04/09 06:57:51;;;;;;;13.60;4.53;;;19.30;35.90;;;;;;5490962;26;20439;-70
2024/04/09 07:00:17;;;;;;;14.10;3.53;;;19.30;35.60;;;;;;5484722;26;20602;-70
2024/04/09 07:02:47;;;;;;;20.53;5.53;;;19.40;32.30;;;;;;5489920;26;20447;-70
2024/04/09 07:05:13;;;;;;;20.80;4.70;;;19.40;35.60;;;;;;5489663;26;20512;-70
2024/04/09 07:07:44;;;;;;;16.10;3.57;;;19.40;34.90;;;;;;5489993;26;20843;-69
2024/04/09 07:10:12;;;;;;;8.73;3.30;;;19.50;30.50;;;;;;5489809;26;20479;-70
2024/04/09 07:12:41;;;;;;;9.33;3.50;;;19.50;33.20;;;;;;5489847;26;20467;-70
2024/04/09 07:15:07;;;;;;;15.27;4.03;;;19.60;34.00;;;;;;5489350;26;20459;-69
2024/04/09 07:17:36;;;;;;;18.20;4.43;;;19.60;31.10;;;;;;5490049;26;20523;-69
2024/04/09 07:20:04;;;;;;;15.83;4.47;;;19.70;33.50;;;;;;5482927;26;20516;-70
2024/04/09 07:22:32;;;;;;;25.53;4.40;;;19.80;34.80;;;;;;5489792;26;20803;-70
2024/04/09 07:25:01;;;;;;;20.17;4.87;;;19.80;36.00;;;;;;5488953;26;20519;-70
2024/04/09 07:27:30;;;;;;;13.40;4.53;;;19.90;40.20;;;;;;5489717;26;20511;-70
2024/04/09 07:29:56;;;;;;;14.07;4.87;;;19.90;41.10;;;;;;5489364;26;20459;-70
2024/04/09 07:32:24;;;;;;;21.20;5.57;;;20.00;38.50;;;;;;5489531;26;20471;-69
2024/04/09 07:34:55;;;;;;;23.73;5.77;;;20.00;36.20;;;;;;5488840;26;20451;-70
2024/04/09 07:37:23;;;;;;;11.50;4.03;;;20.10;38.20;;;;;;5489530;26;20511;-70
2024/04/09 07:39:49;;;;;;;13.40;5.17;;;20.20;43.20;;;;;;5489295;26;20926;-69
2024/04/09 07:42:23;;;;;;;7.90;4.20;;;20.30;43.60;;;;;;5489258;26;20584;-69
2024/04/09 07:44:50;;;;;;;11.23;4.37;;;20.40;41.80;;;;;;5488975;26;20455;-70
2024/04/09 07:47:20;;;;;;;15.20;5.70;;;20.40;40.60;;;;;;5489571;26;20523;-69
2024/04/09 07:49:47;;;;;;;11.43;4.20;;;20.40;41.00;;;;;;5489474;26;20582;-69
2024/04/09 07:52:16;;;;;;;17.77;5.37;;;20.40;41.50;;;;;;5489443;26;20459;-70
2024/04/09 07:54:42;;;;;;;11.90;3.80;;;20.50;42.40;;;;;;5481483;26;20451;-70
2024/04/09 07:57:14;;;;;;;7.10;3.10;;;20.50;43.30;;;;;;5489366;26;20467;-70
2024/04/09 07:59:43;;;;;;;15.80;3.90;;;20.60;40.30;;;;;;5489085;26;20541;-70
2024/04/09 08:02:12;;;;;;;12.97;3.70;;;20.70;38.60;;;;;;5489283;26;20532;-69
2024/04/09 08:04:39;;;;;;;18.20;4.57;;;20.70;39.00;;;;;;5488648;26;20635;-70
2024/04/09 08:07:07;;;;;;;13.40;4.57;;;20.80;38.30;;;;;;5489109;26;20519;-70
2024/04/09 08:09:33;;;;;;;6.40;2.60;;;20.90;37.70;;;;;;5489011;26;21000;-70
2024/04/09 08:12:02;;;;;;;7.10;2.57;;;21.00;36.10;;;;;;5489168;26;20519;-70
2024/04/09 08:14:28;;;;;;;12.40;2.80;;;21.00;36.70;;;;;;5488697;26;20463;-70
2024/04/09 08:16:59;;;;;;;10.27;2.40;;;21.10;34.00;;;;;;5488913;26;20812;-70
2024/04/09 08:19:27;;;;;;;10.93;2.30;;;21.20;32.50;;;;;;5488085;26;20463;-71
2024/04/09 08:21:57;;;;;;;12.97;2.77;;;21.20;30.00;;;;;;5488851;26;20515;-70
2024/04/09 08:24:23;;;;;;;8.67;3.10;;;21.20;30.30;;;;;;5488518;26;20572;-70
2024/04/09 08:26:51;;;;;;;7.93;3.60;;;21.30;30.20;;;;;;5488838;26;20467;-70
2024/04/09 08:29:19;;;;;;;8.07;3.30;;;21.40;31.10;;;;;;5481604;26;20499;-70
2024/04/09 08:31:48;;;;;;;13.10;3.10;;;21.40;31.00;;;;;;5488762;26;20460;-70
2024/04/09 08:34:17;;;;;;;13.97;4.47;;;21.50;32.50;;;;;;5488431;26;20463;-71
2024/04/09 08:36:46;;;;;;;18.07;2.87;;;21.60;33.30;;;;;;5488603;26;20521;-70
2024/04/09 08:39:12;;;;;;;13.80;4.17;;;21.70;31.50;;;;;;5488397;26;20459;-70
2024/04/09 08:41:40;;;;;;;19.53;3.60;;;21.80;31.20;;;;;;5488207;26;20523;-70
2024/04/09 08:44:08;;;;;;;14.40;3.13;;;21.90;30.70;;;;;;5487770;26;20849;-70
2024/04/09 08:46:39;;;;;;;10.17;3.40;;;22.10;30.20;;;;;;5488403;26;20526;-70
2024/04/09 08:49:05;;;;;;;21.93;4.07;;;22.20;29.80;;;;;;5488802;26;20460;-70
2024/04/09 08:51:37;;;;;;;14.00;3.30;;;22.30;30.00;;;;;;5487285;26;20463;-70
2024/04/09 08:54:04;;;;;;;21.27;4.23;;;22.40;30.10;;;;;;5487941;26;20466;-70
2024/04/09 08:56:32;;;;;;;15.83;3.73;;;22.50;30.20;;;;;;5488134;26;20516;-70
2024/04/09 08:59:04;;;;;;;11.13;3.43;;;22.60;31.30;;;;;;5488186;26;21083;-70
2024/04/09 09:01:32;;;;;;;13.53;3.60;;;22.70;30.90;;;;;;5488384;26;20984;-70
2024/04/09 09:03:59;;;;;;;16.60;4.33;;;22.80;30.40;;;;;;5487541;26;20466;-70
2024/04/09 09:06:29;;;;;;;12.63;3.07;;;22.90;30.00;;;;;;5488271;26;20973;-70
2024/04/09 09:08:58;;;;;;;13.80;3.40;;;23.00;29.80;;;;;;5481184;26;20535;-70
2024/04/09 09:11:27;;;;;;;13.37;4.20;;;23.10;29.40;;;;;;5481216;26;20467;-70
2024/04/09 09:14:03;;;;;;;14.17;3.73;;;23.20;29.00;;;;;;5487549;26;20508;-70
2024/04/09 09:16:31;;;;;;;11.03;4.30;;;23.20;29.10;;;;;;5482390;26;20479;-69
2024/04/09 09:19:04;;;;;;;11.37;3.33;;;23.30;29.00;;;;;;5481571;26;21030;-71
2024/04/09 09:21:32;;;;;;;26.83;4.20;;;23.40;29.30;;;;;;5482376;26;20460;-70
2024/04/09 09:24:03;;;;;;;13.03;3.83;;;23.60;29.70;;;;;;5480968;26;20463;-70
2024/04/09 09:26:29;;;;;;;16.23;3.67;;;23.80;30.00;;;;;;5482360;26;20467;-70
2024/04/09 09:29:05;;;;;;;10.10;3.40;;;24.00;30.30;;;;;;5487942;26;21007;-70
2024/04/09 09:31:34;;;;;;;20.17;4.10;;;24.40;31.00;;;;;;5482529;26;20463;-69
2024/04/09 09:34:07;;;;;;;15.87;3.27;;;24.70;29.70;;;;;;5487309;26;20573;-70
2024/04/09 09:36:38;;;;;;;20.23;4.83;;;25.00;29.60;;;;;;5482611;26;20459;-70
2024/04/09 09:39:09;;;;;;;14.67;3.27;;;25.20;28.30;;;;;;5487775;26;21000;-70
2024/04/09 09:41:38;;;;;;;17.13;3.33;;;25.30;28.30;;;;;;5487359;26;20516;-71
2024/04/09 09:44:07;;;;;;;13.57;4.90;;;25.40;28.70;;;;;;5486713;26;21024;-70
2024/04/09 09:46:36;;;;;;;15.30;4.63;;;25.70;28.60;;;;;;5487503;26;20467;-70
2024/04/09 09:49:03;;;;;;;13.77;3.30;;;26.00;27.70;;;;;;5481201;26;20788;-70
2024/04/09 09:51:32;;;;;;;16.67;3.30;;;26.30;28.00;;;;;;5481457;26;20467;-71
2024/04/09 09:53:58;;;;;;;20.87;4.47;;;26.50;28.10;;;;;;5486639;26;20508;-70
2024/04/09 09:56:31;;;;;;;15.37;3.73;;;26.50;27.70;;;;;;5487051;26;20463;-70
2024/04/09 09:58:59;;;;;;;16.80;4.63;;;26.60;27.50;;;;;;5487394;26;20459;-70
2024/04/09 10:01:28;;;;;;;18.33;4.40;;;26.60;27.90;;;;;;5486913;26;20471;-70
2024/04/09 10:03:54;;;;;;;9.60;3.40;;;26.70;28.10;;;;;;5488957;26;20443;-70
2024/04/09 10:06:23;;;;;;;22.80;4.10;;;26.90;28.00;;;;;;5491771;26;20455;-70
2024/04/09 10:08:50;;;;;;;11.80;5.60;;;27.00;28.00;;;;;;5492038;26;20538;-70
2024/04/09 10:11:23;;;;;;;21.83;4.43;;;27.20;27.30;;;;;;5491829;26;20759;-70
2024/04/09 10:13:53;;;;;;;24.83;4.87;;;27.40;28.00;;;;;;5491684;26;20451;-70
2024/04/09 10:16:25;;;;;;;17.50;4.60;;;27.70;27.50;;;;;;5492039;26;20459;-70
2024/04/09 10:18:51;;;;;;;13.23;3.40;;;28.00;25.90;;;;;;5491603;26;20518;-70
2024/04/09 10:21:29;;;;;;;15.23;3.73;;;28.10;25.40;;;;;;5492307;26;20451;-70
2024/04/09 10:23:58;;;;;;;14.50;4.30;;;28.00;25.80;;;;;;5491627;26;20558;-70
2024/04/09 10:26:28;;;;;;;16.70;3.50;;;28.00;26.20;;;;;;5491972;26;20581;-70
2024/04/09 10:29:04;;;;;;;17.63;4.03;;;28.20;26.00;;;;;;5491816;26;20507;-70
2024/04/09 10:31:33;;;;;;;18.17;3.60;;;28.60;25.10;;;;;;5491348;26;20529;-70
2024/04/09 10:33:59;;;;;;;21.20;4.87;;;28.80;25.70;;;;;;5491465;26;20456;-70
2024/04/09 10:36:29;;;;;;;28.93;5.03;;;29.00;25.80;;;;;;5491657;26;20447;-70
2024/04/09 10:38:57;;;;;;;19.17;4.83;;;29.20;25.10;;;;;;5491910;26;20499;-70
2024/04/09 10:41:26;;;;;;;17.53;3.70;;;29.40;25.10;;;;;;5491184;26;20824;-70
2024/04/09 10:43:52;;;;;;;24.13;4.83;;;29.70;24.10;;;;;;5491566;26;20496;-70
2024/04/09 10:46:23;;;;;;;21.50;3.90;;;29.70;23.80;;;;;;5491125;26;20439;-70
2024/04/09 10:48:49;;;;;;;16.07;4.20;;;29.90;24.80;;;;;;5491620;26;20508;-70
2024/04/09 10:51:17;;;;;;;17.47;4.30;;;30.10;23.90;;;;;;5491047;26;20451;-70
2024/04/09 10:53:43;;;;;;;15.43;4.90;;;30.40;23.80;;;;;;5491526;26;20541;-70
2024/04/09 10:56:12;;;;;;;17.83;4.03;;;30.60;23.40;;;;;;5491079;26;20467;-70
2024/04/09 10:58:38;;;;;;;28.47;4.47;;;30.80;23.60;;;;;;5490953;26;20451;-70
2024/04/09 11:01:07;;;;;;;10.53;3.60;;;31.00;23.00;;;;;;5490945;26;20511;-70
2024/04/09 11:03:36;;;;;;;21.83;4.80;;;31.10;23.20;;;;;;5490903;26;20447;-70
2024/04/09 11:06:04;;;;;;;18.37;4.47;;;31.20;23.50;;;;;;5491766;26;20586;-70
2024/04/09 11:08:31;;;;;;;14.63;4.03;;;31.20;23.20;;;;;;5490862;26;20447;-70
2024/04/09 11:11:01;;;;;;;24.77;4.97;;;30.90;23.90;;;;;;5491197;26;20557;-70
2024/04/09 11:13:27;;;;;;;20.07;4.60;;;30.50;24.80;;;;;;5490863;26;20569;-70
2024/04/09 11:15:56;;;;;;;16.53;3.83;;;29.90;24.30;;;;;;5491153;26;20462;-70
2024/04/09 11:18:22;;;;;;;16.53;4.07;;;29.40;25.00;;;;;;5491027;26;20500;-70
2024/04/09 11:20:57;;;;;;;18.63;4.70;;;28.90;25.80;;;;;;5491549;26;20447;-70
2024/04/09 11:23:24;;;;;;;11.50;3.53;;;28.40;26.50;;;;;;5490770;26;20568;-70
2024/04/09 11:25:54;;;;;;;16.27;3.77;;;28.20;27.60;;;;;;5490535;26;20447;-70
2024/04/09 11:28:20;;;;;;;13.30;3.30;;;28.20;28.20;;;;;;5490595;26;20459;-70
2024/04/09 11:30:51;;;;;;;16.47;3.53;;;28.20;28.10;;;;;;5490552;26;20630;-70
2024/04/09 11:33:17;;;;;;;15.37;4.20;;;28.30;28.80;;;;;;5490566;26;20452;-70
2024/04/09 11:35:46;;;;;;;13.07;3.67;;;28.50;28.90;;;;;;5490420;26;20456;-70
2024/04/09 11:38:15;;;;;;;15.63;3.57;;;28.70;28.60;;;;;;5490538;26;20639;-70
2024/04/09 11:40:44;;;;;;;12.37;3.23;;;28.90;27.90;;;;;;5491272;26;20451;-70
2024/04/09 11:43:11;;;;;;;15.83;3.67;;;28.70;27.90;;;;;;5490806;26;20496;-70
2024/04/09 11:45:42;;;;;;;14.30;4.10;;;28.40;28.00;;;;;;5490264;26;20447;-70
2024/04/09 11:48:09;;;;;;;15.40;4.17;;;28.10;28.40;;;;;;5490367;26;20499;-70
2024/04/09 11:50:38;;;;;;;13.70;3.33;;;27.80;28.70;;;;;;5490243;26;20451;-70
2024/04/09 11:53:05;;;;;;;14.10;2.70;;;27.50;28.50;;;;;;5490338;26;20495;-70
2024/04/09 11:55:36;;;;;;;9.73;3.60;;;27.20;29.30;;;;;;5490657;26;21016;-70
2024/04/09 11:58:03;;;;;;;11.47;3.20;;;27.00;29.90;;;;;;5490875;26;20777;-70
2024/04/09 12:00:32;;;;;;;8.70;2.63;;;26.80;29.60;;;;;;5490185;26;20910;-70
2024/04/09 12:02:58;;;;;;;13.00;2.90;;;26.60;29.30;;;;;;5490434;26;20515;-70
2024/04/09 12:05:27;;;;;;;10.77;2.90;;;26.40;29.30;;;;;;5490194;26;20444;-70
2024/04/09 12:07:53;;;;;;;17.77;3.30;;;26.10;29.50;;;;;;5491034;26;20443;-70
2024/04/09 12:10:22;;;;;;;14.40;2.77;;;25.90;30.40;;;;;;5490012;26;20444;-70
2024/04/09 12:12:54;;;;;;;8.80;2.17;;;25.80;30.90;;;;;;5489906;26;20504;-70
2024/04/09 12:15:20;;;;;;;5.17;2.00;;;25.80;31.30;;;;;;5490042;26;20564;-69
2024/04/09 12:17:48;;;;;;;5.70;1.33;;;25.70;31.60;;;;;;5490236;26;20528;-70
2024/04/09 12:20:14;;;;;;;13.90;1.73;;;25.70;31.10;;;;;;5490123;26;20953;-70
2024/04/09 12:22:44;;;;;;;5.90;1.67;;;25.40;30.40;;;;;;5489737;26;20507;-70
2024/04/09 12:25:10;;;;;;;5.63;1.20;;;25.10;30.20;;;;;;5489766;26;20443;-69
2024/04/09 12:27:38;;;;;;;4.20;0.70;;;24.70;30.80;;;;;;5489064;26;20507;-69
2024/04/09 12:30:08;;;;;;;4.67;1.23;;;24.40;30.90;;;;;;5489542;26;20455;-70
2024/04/09 12:32:37;;;;;;;5.10;1.33;;;23.90;30.60;;;;;;5489605;26;20443;-70
2024/04/09 12:35:04;;;;;;;4.30;1.80;;;23.60;31.50;;;;;;5489911;26;20969;-70
2024/04/09 12:37:32;;;;;;;5.67;1.00;;;23.20;31.80;;;;;;5489532;26;20491;-70
2024/04/09 12:39:58;;;;;;;5.23;0.80;;;23.00;32.40;;;;;;5489347;26;20811;-69
2024/04/09 12:42:28;;;;;;;6.07;0.83;;;22.80;32.80;;;;;;5489369;26;20452;-70
2024/04/09 12:44:55;;;;;;;3.00;0.70;;;22.50;32.20;;;;;;5489642;26;20455;-70